Time;durP1;ratioP1;P1;durP2;ratioP2;P2;SDS_P1;SDS_P2;PMS_P1;PMS_P2;Temp;Humidity;BMP_temperature;BMP_pressure;BME280_temperature;BME280_humidity;BME280_pressure;Samples;Min_cycle;Max_cycle;Signal;HPM_P1;HPM_P2
2021/01/15 00:02:13;;;;;;;15.37;13.90;;;;;;;0.86;84.94;101161.38;5085389;28;20827;-81
2021/01/15 00:04:40;;;;;;;17.73;13.60;;;;;;;1.02;84.87;101162.75;5089491;28;20775;-81
2021/01/15 00:07:06;;;;;;;15.37;13.87;;;;;;;1.09;84.16;101156.97;5087402;28;20203;-80
2021/01/15 00:09:32;;;;;;;14.70;13.40;;;;;;;1.17;84.38;101155.50;5088950;28;20197;-80
2021/01/15 00:11:58;;;;;;;15.33;13.73;;;;;;;1.19;83.95;101156.44;5084189;28;20211;-79
2021/01/15 00:14:24;;;;;;;14.83;13.43;;;;;;;1.19;84.41;101169.28;5091676;28;20239;-79
2021/01/15 00:16:52;;;;;;;15.43;14.00;;;;;;;1.27;83.61;101159.25;5085211;28;20192;-80
2021/01/15 00:19:18;;;;;;;15.13;13.63;;;;;;;1.27;84.15;101156.66;5059107;28;20197;-80
2021/01/15 00:21:48;;;;;;;15.20;13.80;;;;;;;1.23;84.42;101156.50;5083078;28;20210;-79
2021/01/15 00:24:15;;;;;;;16.00;14.30;;;;;;;1.27;83.62;101160.91;5092486;28;20267;-80
2021/01/15 00:26:43;;;;;;;14.93;13.63;;;;;;;1.31;84.13;101158.50;5085772;28;20199;-80
2021/01/15 00:29:09;;;;;;;14.57;13.07;;;;;;;1.35;83.67;101159.47;5078259;28;20203;-80
2021/01/15 00:31:37;;;;;;;16.63;15.23;;;;;;;1.31;84.48;101158.50;5085590;28;20596;-80
2021/01/15 00:34:03;;;;;;;15.47;13.87;;;;;;;1.34;83.51;101152.56;5093548;28;20286;-81
2021/01/15 00:36:29;;;;;;;16.20;14.60;;;;;;;1.31;84.13;101160.19;5078660;28;20206;-80
2021/01/15 00:38:56;;;;;;;15.23;13.73;;;;;;;1.31;84.13;101155.03;5095987;28;20200;-81
2021/01/15 00:41:22;;;;;;;16.17;14.60;;;;;;;1.33;84.92;101155.97;5084501;28;20200;-80
2021/01/15 00:43:48;;;;;;;15.27;13.83;;;;;;;1.36;84.02;101156.94;5092459;28;20575;-80
2021/01/15 00:46:27;;;;;;;15.60;13.90;;;;;;;1.35;84.74;101147.47;5084060;28;20201;-80
2021/01/15 00:48:53;;;;;;;15.00;13.50;;;;;;;1.36;83.90;101154.34;5092548;28;20210;-80
2021/01/15 00:51:19;;;;;;;16.80;15.17;;;;;;;1.32;84.71;101154.22;5084255;28;20228;-81
2021/01/15 00:53:45;;;;;;;15.20;13.73;;;;;;;1.31;84.50;101155.94;5093158;28;20653;-80
2021/01/15 00:56:16;;;;;;;15.50;14.10;;;;;;;1.36;84.22;101158.63;5086296;28;20211;-80
2021/01/15 00:58:42;;;;;;;16.00;14.50;;;;;;;1.35;84.23;101156.91;5093102;28;20203;-80
2021/01/15 01:01:11;;;;;;;15.80;14.40;;;;;;;1.32;84.64;101154.22;5085847;28;20625;-81
2021/01/15 01:03:37;;;;;;;15.23;13.63;;;;;;;1.35;84.58;101159.47;5079731;28;20228;-82
2021/01/15 01:06:08;;;;;;;15.37;13.97;;;;;;;1.34;84.91;101158.56;5076985;28;20263;-82
2021/01/15 01:08:34;;;;;;;15.40;14.00;;;;;;;1.35;83.93;101162.91;5097003;28;20207;-80
2021/01/15 01:11:00;;;;;;;15.43;13.93;;;;;;;1.36;84.17;101162.06;5081530;28;20212;-82
2021/01/15 01:13:27;;;;;;;15.37;13.77;;;;;;;1.38;84.46;101157.84;5089154;28;20888;-82
2021/01/15 01:15:53;;;;;;;16.37;14.87;;;;;;;1.36;83.60;101161.19;5086674;28;20220;-81
2021/01/15 01:18:19;;;;;;;16.30;13.97;;;;;;;1.42;83.25;101156.25;5087442;28;20253;-81
2021/01/15 01:20:44;;;;;;;16.83;15.10;;;;;;;1.43;83.29;101165.72;5087470;28;20199;-82
2021/01/15 01:23:10;;;;;;;16.30;14.67;;;;;;;1.40;83.47;101160.47;5087536;28;20269;-81
2021/01/15 01:25:36;;;;;;;15.80;14.20;;;;;;;1.37;83.15;101165.53;5083124;28;20220;-82
2021/01/15 01:28:02;;;;;;;15.97;14.57;;;;;;;1.39;83.73;101169.88;5085475;28;20291;-80
2021/01/15 01:30:29;;;;;;;16.67;15.17;;;;;;;1.41;83.30;101163.91;5081618;28;20219;-80
2021/01/15 01:32:55;;;;;;;15.63;14.10;;;;;;;1.41;83.18;101162.22;5086915;28;20196;-81
2021/01/15 01:35:20;;;;;;;16.83;15.20;;;;;;;1.38;83.39;101162.97;5081592;28;20347;-81
2021/01/15 01:37:46;;;;;;;15.23;13.73;;;;;;;1.37;83.58;101166.41;5076872;28;20236;-80
2021/01/15 01:40:15;;;;;;;16.70;15.00;;;;;;;1.35;83.24;101164.63;5079176;28;20202;-80
2021/01/15 01:42:41;;;;;;;15.93;14.27;;;;;;;1.36;83.20;101164.63;5089141;28;20223;-81
2021/01/15 01:45:09;;;;;;;15.37;13.70;;;;;;;1.34;82.94;101168.88;5088069;28;20608;-80
2021/01/15 01:47:35;;;;;;;15.33;13.80;;;;;;;1.33;83.31;101169.72;5089131;28;20196;-80
2021/01/15 01:50:02;;;;;;;16.33;14.73;;;;;;;1.29;83.38;101164.41;5088080;28;20207;-81
2021/01/15 01:52:28;;;;;;;15.27;13.77;;;;;;;1.34;83.03;101170.56;5083557;28;20276;-80
2021/01/15 01:54:54;;;;;;;14.90;13.60;;;;;;;1.28;83.62;101166.13;5074752;28;20225;-80
2021/01/15 01:57:20;;;;;;;14.47;13.13;;;;;;;1.25;83.01;101181.47;5087118;28;20654;-81
2021/01/15 01:59:46;;;;;;;15.73;14.43;;;;;;;1.25;83.07;101186.59;5088769;28;20292;-80
2021/01/15 02:02:12;;;;;;;15.23;13.73;;;;;;;1.27;83.22;101190.09;5086271;28;20722;-81
2021/01/15 02:04:39;;;;;;;15.23;13.83;;;;;;;1.30;82.95;101189.31;5087225;28;20253;-81
2021/01/15 02:07:04;;;;;;;15.13;13.63;;;;;;;1.30;83.08;101195.31;5084292;28;20203;-81
2021/01/15 02:09:39;;;;;;;14.87;13.47;;;;;;;1.31;83.23;101193.63;5089463;28;20251;-82
2021/01/15 02:12:15;;;;;;;14.23;12.93;;;;;;;1.30;82.80;101190.19;5085541;28;20204;-83
2021/01/15 02:14:54;;;;;;;15.27;13.70;;;;;;;1.26;83.42;101187.47;5080138;22;20225;-80
2021/01/15 02:17:26;;;;;;;14.80;13.33;;;;;;;1.21;83.69;101196.72;5046042;28;20227;-80
2021/01/15 02:20:03;;;;;;;14.63;12.90;;;;;;;1.28;82.80;101198.69;5045646;28;20214;-80
2021/01/15 02:22:48;;;;;;;14.10;12.60;;;;;;;1.28;83.32;101199.53;5045903;28;20675;-80
2021/01/15 02:25:33;;;;;;;16.13;13.97;;;;;;;1.24;83.56;101199.41;5043923;28;20283;-80
2021/01/15 02:28:17;;;;;;;13.10;11.80;;;;;;;1.23;83.47;101201.13;5042284;28;20323;-79
2021/01/15 02:31:05;;;;;;;14.07;12.67;;;;;;;1.23;82.59;101205.38;5041854;28;20213;-78
2021/01/15 02:33:46;;;;;;;13.60;12.30;;;;;;;1.17;83.48;101216.34;5045326;28;20198;-79
2021/01/15 02:36:19;;;;;;;13.50;12.30;;;;;;;1.15;83.55;101203.44;5037700;28;20292;-79
2021/01/15 02:38:51;;;;;;;14.37;13.07;;;;;;;1.11;83.87;101201.59;5035147;28;20202;-81
2021/01/15 02:41:21;;;;;;;14.20;12.87;;;;;;;1.07;84.28;101201.44;5043265;28;20206;-80
2021/01/15 02:43:50;;;;;;;14.93;13.43;;;;;;;1.13;83.33;101202.53;5052792;28;20220;-80
2021/01/15 02:46:22;;;;;;;13.20;11.90;;;;;;;1.14;82.91;101206.81;5043980;28;20215;-78
2021/01/15 02:48:53;;;;;;;14.17;11.87;;;;;;;1.13;83.15;101209.34;5050455;28;20208;-79
2021/01/15 02:51:19;;;;;;;14.00;12.70;;;;;;;1.12;83.66;101211.03;5041987;28;20648;-79
2021/01/15 02:53:46;;;;;;;13.27;12.07;;;;;;;1.13;83.26;101217.06;5049631;28;20227;-79
2021/01/15 02:56:13;;;;;;;13.47;12.13;;;;;;;1.12;83.73;101213.63;5041332;28;20280;-80
2021/01/15 02:58:40;;;;;;;13.03;11.93;;;;;;;1.11;83.96;101223.84;5048254;28;20206;-81
2021/01/15 03:01:06;;;;;;;12.40;11.13;;;;;;;1.12;83.64;101226.47;5043084;28;20205;-80
2021/01/15 03:03:35;;;;;;;13.50;12.27;;;;;;;1.11;82.81;101226.41;5048261;28;20228;-80
2021/01/15 03:06:06;;;;;;;13.53;12.23;;;;;;;1.05;83.46;101227.13;5033822;28;20223;-79
2021/01/15 03:08:32;;;;;;;13.83;12.43;;;;;;;1.04;83.29;101227.94;5033007;28;20664;-80
2021/01/15 03:11:01;;;;;;;13.97;12.20;;;;;;;1.03;84.07;101231.34;5041282;28;20292;-80
2021/01/15 03:13:30;;;;;;;13.70;12.40;;;;;;;0.98;83.83;101231.16;5046229;28;20197;-80
2021/01/15 03:15:59;;;;;;;12.43;11.17;;;;;;;1.00;83.41;101233.78;5048451;28;20582;-78
2021/01/15 03:18:26;;;;;;;13.90;12.57;;;;;;;1.04;84.12;101235.63;5063968;28;20255;-78
2021/01/15 03:20:52;;;;;;;13.27;11.87;;;;;;;1.07;83.37;101235.75;5063118;28;20205;-81
2021/01/15 03:23:18;;;;;;;12.30;11.10;;;;;;;1.09;83.67;101234.09;5068791;28;20233;-80
2021/01/15 03:25:45;;;;;;;14.53;11.03;;;;;;;1.09;83.53;101241.81;5056982;28;20230;-80
2021/01/15 03:28:10;;;;;;;12.13;10.87;;;;;;;1.13;83.46;101235.06;5064273;28;20194;-80
2021/01/15 03:30:37;;;;;;;13.30;11.77;;;;;;;1.08;83.02;101244.34;5062514;28;20220;-80
2021/01/15 03:33:05;;;;;;;11.90;10.90;;;;;;;1.10;83.06;101245.25;5068418;28;20185;-78
2021/01/15 03:35:33;;;;;;;13.00;11.73;;;;;;;1.09;83.91;101246.06;5062512;28;20206;-79
2021/01/15 03:38:00;;;;;;;11.37;10.33;;;;;;;1.11;83.30;101255.59;5051268;28;20208;-81
2021/01/15 03:40:28;;;;;;;12.40;10.87;;;;;;;1.12;83.66;101251.31;5046244;28;20201;-81
2021/01/15 03:42:54;;;;;;;12.53;11.20;;;;;;;1.08;83.38;101260.63;5052715;28;20221;-80
2021/01/15 03:45:21;;;;;;;13.77;12.47;;;;;;;1.06;83.21;101256.25;5045445;28;20235;-81
2021/01/15 03:47:47;;;;;;;11.77;10.87;;;;;;;1.08;83.75;101258.06;5051565;28;20193;-82
2021/01/15 03:50:14;;;;;;;11.40;10.27;;;;;;;1.09;83.61;101254.66;5043019;28;20225;-82
2021/01/15 03:52:40;;;;;;;12.07;10.87;;;;;;;1.12;82.69;101262.47;5048985;28;20205;-81
2021/01/15 03:55:06;;;;;;;11.33;10.23;;;;;;;1.11;82.77;101260.75;5048262;28;20230;-79
2021/01/15 03:57:34;;;;;;;13.67;11.57;;;;;;;1.13;83.29;101264.22;5046045;28;20681;-80
2021/01/15 04:00:00;;;;;;;11.43;10.43;;;;;;;1.11;82.71;101267.56;5045800;28;20206;-80
2021/01/15 04:02:26;;;;;;;11.50;10.43;;;;;;;1.09;83.20;101267.53;5047836;28;20323;-82
2021/01/15 04:04:52;;;;;;;11.13;9.70;;;;;;;1.10;82.68;101270.97;5045481;28;20708;-82
2021/01/15 04:07:18;;;;;;;11.33;10.33;;;;;;;1.08;82.81;101268.34;5037970;28;20209;-81
2021/01/15 04:09:44;;;;;;;12.80;10.40;;;;;;;1.09;83.01;101272.66;5048780;28;20233;-81
2021/01/15 04:12:11;;;;;;;10.90;9.90;;;;;;;1.08;83.02;101264.91;5047739;28;20209;-80
2021/01/15 04:14:38;;;;;;;12.23;11.03;;;;;;;1.05;82.75;101264.78;5049897;28;20226;-81
2021/01/15 04:17:04;;;;;;;10.83;9.73;;;;;;;1.08;83.34;101270.91;5047720;28;20568;-80
2021/01/15 04:19:30;;;;;;;11.17;10.17;;;;;;;1.07;82.48;101271.75;5051049;28;20218;-82
2021/01/15 04:21:56;;;;;;;11.17;10.10;;;;;;;1.06;82.86;101272.56;5045991;28;20662;-82
2021/01/15 04:24:22;;;;;;;11.00;9.90;;;;;;;1.04;82.36;101273.34;5050600;28;20274;-80
2021/01/15 04:26:50;;;;;;;10.83;9.83;;;;;;;1.01;82.72;101276.66;5043199;28;20284;-80
2021/01/15 04:29:16;;;;;;;11.23;10.23;;;;;;;1.04;82.52;101271.63;5028729;28;20198;-80
2021/01/15 04:31:43;;;;;;;11.53;10.30;;;;;;;1.01;82.40;101276.66;5048428;28;20252;-80
2021/01/15 04:34:09;;;;;;;10.93;9.83;;;;;;;1.02;81.93;101280.13;5047098;28;20225;-79
2021/01/15 04:36:35;;;;;;;12.57;11.37;;;;;;;0.99;82.63;101288.59;5031217;28;20701;-80
2021/01/15 04:39:01;;;;;;;10.57;9.47;;;;;;;0.97;81.99;101288.56;5045506;28;20212;-80
2021/01/15 04:41:28;;;;;;;10.97;9.97;;;;;;;1.00;82.52;101292.91;5045931;28;20252;-79
2021/01/15 04:43:55;;;;;;;11.10;10.00;;;;;;;0.94;82.96;101283.28;5050014;28;20221;-79
2021/01/15 04:46:22;;;;;;;11.03;9.93;;;;;;;0.95;83.33;101289.31;5041466;28;20284;-81
2021/01/15 04:48:50;;;;;;;10.80;9.80;;;;;;;0.95;82.54;101290.19;5050738;28;20208;-79
2021/01/15 04:51:19;;;;;;;11.30;9.43;;;;;;;0.96;82.61;101291.94;5046192;28;20232;-79
2021/01/15 04:53:53;;;;;;;11.40;10.40;;;;;;;0.95;81.76;101294.44;5053288;28;20200;-80
2021/01/15 04:56:29;;;;;;;10.20;9.27;;;;;;;0.96;82.52;101293.63;5046538;28;20205;-80
2021/01/15 04:59:00;;;;;;;11.13;10.03;;;;;;;0.96;82.04;101297.06;5055838;28;20255;-81
2021/01/15 05:01:26;;;;;;;13.13;9.80;;;;;;;0.99;82.12;101301.44;5046993;28;20206;-81
2021/01/15 05:03:53;;;;;;;11.50;10.43;;;;;;;0.94;82.68;101298.72;5056257;28;20220;-80
2021/01/15 05:06:21;;;;;;;11.73;10.57;;;;;;;0.99;82.61;101304.00;5042214;28;20205;-80
2021/01/15 05:08:49;;;;;;;11.87;10.87;;;;;;;1.04;82.70;101302.47;5046060;28;20209;-82
2021/01/15 05:11:16;;;;;;;10.87;9.87;;;;;;;1.05;82.54;101313.63;5047829;28;20208;-81
2021/01/15 05:13:42;;;;;;;10.97;9.97;;;;;;;1.07;82.59;101305.16;5054237;28;20207;-82
2021/01/15 05:16:08;;;;;;;11.97;10.87;;;;;;;1.06;82.03;101310.25;5047592;28;20599;-79
2021/01/15 05:18:38;;;;;;;12.10;10.90;;;;;;;0.96;82.62;101311.63;5052073;28;20208;-82
2021/01/15 05:21:05;;;;;;;12.37;11.27;;;;;;;0.88;83.20;101310.50;5048801;28;20675;-82
2021/01/15 05:23:31;;;;;;;11.07;10.07;;;;;;;0.95;83.32;101315.00;5052794;28;20218;-80
2021/01/15 05:25:57;;;;;;;11.57;10.53;;;;;;;0.94;82.96;101314.13;5052204;28;20271;-81
2021/01/15 05:28:22;;;;;;;10.50;9.40;;;;;;;0.95;83.39;101318.47;5050971;28;20249;-82
2021/01/15 05:30:56;;;;;;;11.20;10.17;;;;;;;1.04;82.91;101311.91;5046361;28;20288;-82
2021/01/15 05:33:22;;;;;;;11.03;10.03;;;;;;;1.10;82.67;101322.38;5044874;28;20198;-81
2021/01/15 05:35:51;;;;;;;10.73;9.50;;;;;;;1.15;82.86;101320.81;5049314;28;20226;-80
2021/01/15 05:38:20;;;;;;;10.23;9.27;;;;;;;1.16;82.51;101328.59;5032116;28;20549;-80
2021/01/15 05:40:47;;;;;;;11.03;10.07;;;;;;;1.12;81.37;101323.31;5048901;28;20205;-80
2021/01/15 05:43:25;;;;;;;12.07;10.77;;;;;;;0.93;81.38;101330.41;5048952;28;20271;-80
2021/01/15 05:46:07;;;;;;;11.80;10.67;;;;;;;0.76;82.40;101332.38;5048551;28;20225;-80
2021/01/15 05:48:33;;;;;;;12.97;11.20;;;;;;;0.83;83.08;101336.00;5044430;28;20212;-80
2021/01/15 05:50:59;;;;;;;11.60;10.67;;;;;;;0.60;82.73;101324.94;5041326;28;20209;-82
2021/01/15 05:53:25;;;;;;;12.53;11.27;;;;;;;0.43;83.59;101336.28;5050610;28;20682;-81
2021/01/15 05:55:55;;;;;;;11.60;10.40;;;;;;;0.34;83.51;101330.00;5048948;28;20232;-80
2021/01/15 05:58:21;;;;;;;12.77;11.10;;;;;;;0.25;84.51;101334.78;5050300;28;20202;-82
2021/01/15 06:00:51;;;;;;;12.80;11.60;;;;;;;0.16;85.44;101329.31;5049178;28;20212;-79
2021/01/15 06:03:17;;;;;;;12.60;11.50;;;;;;;0.16;85.71;101337.91;5044657;28;20235;-81
2021/01/15 06:05:49;;;;;;;12.37;11.10;;;;;;;0.35;85.68;101339.44;5041673;28;20614;-79
2021/01/15 06:08:15;;;;;;;12.20;10.80;;;;;;;0.04;85.26;101350.28;5041695;28;20621;-82
2021/01/15 06:10:44;;;;;;;12.50;11.20;;;;;;;0.00;85.54;101343.28;5042855;28;20211;-81
2021/01/15 06:13:10;;;;;;;12.23;10.93;;;;;;;0.04;86.26;101332.31;5050477;28;20726;-80
2021/01/15 06:15:46;;;;;;;13.17;11.43;;;;;;;0.25;85.99;101342.50;5043777;28;20236;-79
2021/01/15 06:18:19;;;;;;;11.97;10.77;;;;;;;0.38;85.96;101336.13;5047322;28;20198;-80
2021/01/15 06:20:46;;;;;;;12.17;10.97;;;;;;;0.51;85.74;101346.00;5048590;28;20205;-80
2021/01/15 06:23:13;;;;;;;11.53;10.33;;;;;;;0.43;85.22;101344.88;5047488;28;20228;-79
2021/01/15 06:28:36;;;;;;;11.43;10.33;;;;;;;0.38;84.44;101341.28;5133123;27;21054;-81
2021/01/15 06:31:04;;;;;;;12.70;11.00;;;;;;;0.29;84.51;101341.78;5121074;28;20214;-81
2021/01/15 06:33:30;;;;;;;11.77;10.57;;;;;;;0.28;84.56;101347.75;5100037;28;20229;-80
2021/01/15 06:35:56;;;;;;;11.67;10.57;;;;;;;0.16;84.68;101342.16;5108158;28;20223;-81
2021/01/15 06:38:28;;;;;;;10.73;9.60;;;;;;;0.08;84.95;101351.22;5111931;28;20229;-79
2021/01/15 06:40:54;;;;;;;10.70;9.70;;;;;;;0.09;85.20;101353.88;5111489;28;20214;-80
2021/01/15 06:43:22;;;;;;;12.83;11.50;;;;;;;-0.09;85.58;101360.88;5104167;28;20300;-80
2021/01/15 06:45:51;;;;;;;12.03;10.63;;;;;;;-0.23;86.18;101357.75;5111090;28;20759;-80
2021/01/15 06:48:18;;;;;;;12.60;11.40;;;;;;;-0.21;86.25;101363.81;5106640;28;20203;-81
2021/01/15 06:50:46;;;;;;;13.37;11.70;;;;;;;-0.40;86.80;101362.19;5115251;28;20203;-79
2021/01/15 06:53:17;;;;;;;13.60;12.20;;;;;;;-0.33;87.62;101364.22;5104938;28;20199;-80
2021/01/15 06:55:45;;;;;;;13.57;12.27;;;;;;;-0.33;87.17;101371.03;5111939;28;20225;-80
2021/01/15 06:58:25;;;;;;;13.47;12.13;;;;;;;-0.29;87.52;101381.47;5104257;28;20340;-81
2021/01/15 07:01:19;;;;;;;14.20;12.90;;;;;;;-0.17;87.33;101373.38;5112602;28;20211;-80
2021/01/15 07:04:25;;;;;;;16.13;13.37;;;;;;;-0.03;86.87;101379.06;5108698;28;20210;-81
2021/01/15 07:07:10;;;;;;;14.67;13.27;;;;;;;-0.06;87.15;101374.69;5109019;28;20205;-79
2021/01/15 07:09:36;;;;;;;14.83;13.30;;;;;;;-0.06;86.69;101373.78;5112294;28;20298;-81
2021/01/15 07:12:05;;;;;;;14.40;12.90;;;;;;;0.05;86.73;101382.81;5103473;28;20740;-80
2021/01/15 07:14:42;;;;;;;14.23;12.83;;;;;;;-0.09;86.38;101377.13;5111470;28;20223;-79
2021/01/15 07:17:14;;;;;;;14.57;13.07;;;;;;;-0.26;87.17;101383.28;5103315;28;20248;-80
2021/01/15 07:19:43;;;;;;;15.57;14.07;;;;;;;-0.22;87.33;101388.59;5111371;28;20264;-79
2021/01/15 07:22:12;;;;;;;16.50;14.87;;;;;;;-0.15;87.56;101392.28;5103158;28;20298;-79
2021/01/15 07:24:39;;;;;;;14.67;13.13;;;;;;;-0.04;87.15;101395.25;5116563;28;20611;-81
2021/01/15 07:27:07;;;;;;;15.13;13.53;;;;;;;-0.18;87.22;101396.41;5113331;27;20231;-81
2021/01/15 07:29:34;;;;;;;17.70;15.90;;;;;;;-0.10;87.02;101398.50;5107568;28;20229;-81
2021/01/15 07:32:06;;;;;;;15.63;14.03;;;;;;;-0.26;87.53;101393.53;5112238;27;20202;-79
2021/01/15 07:34:37;;;;;;;16.10;14.47;;;;;;;-0.14;87.31;101403.41;5096602;28;20215;-81
2021/01/15 07:37:17;;;;;;;15.77;14.17;;;;;;;-0.02;87.60;101407.38;5113354;27;20233;-82
2021/01/15 07:40:04;;;;;;;16.53;14.63;;;;;;;-0.01;86.59;101409.09;5098425;28;20207;-82
2021/01/15 07:42:54;;;;;;;15.20;13.60;;;;;;;-0.22;86.69;101411.69;5091910;28;20681;-80
2021/01/15 07:45:50;;;;;;;15.53;14.03;;;;;;;-0.10;86.56;101416.44;5098024;28;20221;-81
2021/01/15 07:48:16;;;;;;;15.80;14.07;;;;;;;-0.04;86.68;101416.69;5089850;28;20195;-81
2021/01/15 07:50:44;;;;;;;17.03;15.23;;;;;;;-0.05;86.23;101414.06;5097867;28;20207;-80
2021/01/15 07:53:26;;;;;;;16.30;14.70;;;;;;;-0.10;86.69;101416.44;5091874;28;20626;-78
2021/01/15 07:55:53;;;;;;;18.13;15.80;;;;;;;-0.17;86.79;101417.00;5098429;28;20811;-79
2021/01/15 07:58:20;;;;;;;16.73;15.13;;;;;;;-0.23;87.06;101422.75;5104829;28;20267;-80
2021/01/15 08:00:47;;;;;;;16.87;15.07;;;;;;;-0.14;87.10;101424.84;5105227;28;20207;-81
2021/01/15 08:03:14;;;;;;;18.10;16.30;;;;;;;-0.17;86.88;101423.84;5108056;27;20256;-80
2021/01/15 08:05:42;;;;;;;18.50;16.00;;;;;;;-0.07;86.53;101429.38;5106611;28;20236;-80
2021/01/15 08:08:10;;;;;;;17.43;15.50;;;;;;;-0.11;86.66;101429.22;5104419;28;20207;-81
2021/01/15 08:10:45;;;;;;;22.80;16.77;;;;;;;-0.13;86.76;101434.28;5105098;28;20661;-80
2021/01/15 08:13:28;;;;;;;17.93;16.03;;;;;;;0.06;86.72;101437.56;5095966;28;20197;-79
2021/01/15 08:15:55;;;;;;;17.33;15.53;;;;;;;-0.01;85.93;101445.03;5096343;28;20230;-80
2021/01/15 08:18:22;;;;;;;18.33;16.33;;;;;;;0.07;86.21;101447.91;5109675;28;20274;-77
2021/01/15 08:20:49;;;;;;;18.50;16.63;;;;;;;0.02;86.78;101448.53;5099751;28;20196;-78
2021/01/15 08:23:22;;;;;;;19.80;16.10;;;;;;;0.00;86.82;101451.06;5096943;28;20204;-77
2021/01/15 08:26:07;;;;;;;19.90;17.33;;;;;;;-0.09;86.80;101448.97;5105367;28;20226;-80
2021/01/15 08:28:33;;;;;;;19.63;16.60;;;;;;;-0.08;86.80;101445.63;5088819;28;20199;-79
2021/01/15 08:31:02;;;;;;;18.53;16.27;;;;;;;0.06;87.83;101450.41;5107170;28;20223;-77
2021/01/15 08:33:28;;;;;;;19.57;16.67;;;;;;;0.30;89.27;101445.41;5098675;28;20265;-80
2021/01/15 08:35:59;;;;;;;22.60;16.97;;;;;;;0.56;88.77;101449.81;5102364;28;20306;-80
2021/01/15 08:38:31;;;;;;;19.13;16.93;;;;;;;0.19;87.43;101452.66;5103151;28;20588;-78
2021/01/15 08:40:57;;;;;;;20.50;17.20;;;;;;;0.24;87.83;101450.25;5104597;28;20225;-79
2021/01/15 08:43:24;;;;;;;20.13;18.03;;;;;;;0.29;87.63;101448.75;5105424;28;20204;-79
2021/01/15 08:45:50;;;;;;;21.37;17.77;;;;;;;0.31;87.83;101455.69;5102527;28;20224;-79
2021/01/15 08:48:17;;;;;;;20.27;17.97;;;;;;;0.54;88.93;101456.59;5108437;28;20198;-79
2021/01/15 08:50:43;;;;;;;22.80;18.97;;;;;;;0.71;88.45;101462.34;5102966;28;20284;-79
2021/01/15 08:53:10;;;;;;;20.10;18.00;;;;;;;0.72;87.47;101469.28;5104254;28;20752;-79
2021/01/15 08:55:39;;;;;;;34.07;21.20;;;;;;;0.71;87.87;101474.34;5103654;28;20230;-79
2021/01/15 08:58:06;;;;;;;22.57;18.53;;;;;;;0.81;87.72;101473.00;5102654;28;20276;-79
2021/01/15 09:00:34;;;;;;;24.20;18.50;;;;;;;0.96;87.97;101466.72;5103902;28;20215;-79
2021/01/15 09:03:03;;;;;;;19.70;17.50;;;;;;;0.81;87.33;101479.00;5108444;28;20207;-80
2021/01/15 09:05:31;;;;;;;21.90;19.53;;;;;;;0.76;86.13;101478.84;5105329;28;20227;-80
2021/01/15 09:08:01;;;;;;;22.73;18.67;;;;;;;0.60;85.94;101484.22;5105902;28;20657;-78
2021/01/15 09:10:28;;;;;;;20.70;16.40;;;;;;;0.57;85.43;101486.66;5099299;28;20207;-78
2021/01/15 09:13:00;;;;;;;21.87;19.50;;;;;;;0.56;85.99;101487.50;5106142;28;20462;-78
2021/01/15 09:15:36;;;;;;;23.87;19.70;;;;;;;0.53;85.66;101493.38;5107268;28;20716;-79
2021/01/15 09:18:06;;;;;;;20.37;18.17;;;;;;;0.41;86.33;101495.47;5098301;28;20219;-79
2021/01/15 09:20:32;;;;;;;26.83;19.67;;;;;;;0.26;86.07;101499.97;5099299;28;20264;-79
2021/01/15 09:22:58;;;;;;;23.07;18.53;;;;;;;0.34;86.49;101502.06;5084269;28;20231;-79
2021/01/15 09:25:25;;;;;;;20.00;17.97;;;;;;;0.14;86.73;101502.94;5092723;28;20713;-78
2021/01/15 09:27:51;;;;;;;22.07;18.87;;;;;;;0.02;87.55;101513.59;5086448;28;20668;-78
2021/01/15 09:30:18;;;;;;;31.27;18.97;;;;;;;0.11;88.16;101511.38;5099546;28;20203;-77
2021/01/15 09:32:45;;;;;;;24.27;18.93;;;;;;;0.22;87.43;101516.06;5099124;28;20589;-79
2021/01/15 09:35:13;;;;;;;21.20;19.10;;;;;;;0.27;87.78;101522.28;5094160;28;20232;-77
2021/01/15 09:37:40;;;;;;;23.77;19.23;;;;;;;0.20;87.80;101516.03;5092176;28;20234;-79
2021/01/15 09:40:07;;;;;;;23.13;20.13;;;;;;;0.32;87.62;101518.22;5093648;28;20202;-78
2021/01/15 09:42:33;;;;;;;29.97;19.80;;;;;;;0.41;87.28;101522.84;5085845;28;20211;-78
2021/01/15 09:44:59;;;;;;;23.17;19.40;;;;;;;0.51;87.05;101517.25;5098972;28;20219;-79
2021/01/15 09:47:29;;;;;;;22.40;18.63;;;;;;;0.50;86.72;101525.78;5086030;28;20250;-79
2021/01/15 09:49:55;;;;;;;23.33;20.37;;;;;;;0.46;87.23;101527.34;5093620;28;20215;-77
2021/01/15 09:52:20;;;;;;;21.40;19.13;;;;;;;0.47;87.37;101525.66;5085606;28;20204;-77
2021/01/15 09:54:46;;;;;;;20.50;18.37;;;;;;;0.59;87.12;101529.59;5092989;28;20246;-77
2021/01/15 09:57:12;;;;;;;21.20;18.20;;;;;;;0.61;85.85;101529.63;5085344;28;20270;-78
2021/01/15 09:59:38;;;;;;;27.93;20.47;;;;;;;0.73;85.69;101532.72;5093587;28;20224;-79
2021/01/15 10:02:04;;;;;;;20.43;18.13;;;;;;;0.80;85.86;101533.81;5094103;28;20235;-79
2021/01/15 10:04:32;;;;;;;20.03;17.87;;;;;;;0.78;85.23;101538.00;5092840;28;20918;-79
2021/01/15 10:06:58;;;;;;;19.97;17.33;;;;;;;0.82;85.13;101536.44;5092991;28;20202;-79
2021/01/15 10:09:24;;;;;;;21.20;18.90;;;;;;;0.48;86.09;101538.56;5093293;28;20212;-80
2021/01/15 10:11:49;;;;;;;26.20;19.13;;;;;;;0.63;86.41;101532.28;5086053;28;20597;-78
2021/01/15 10:14:17;;;;;;;23.43;19.33;;;;;;;0.63;86.01;101545.13;5093020;28;21006;-76
2021/01/15 10:16:49;;;;;;;23.20;18.23;;;;;;;0.77;85.95;101538.81;5084622;28;20212;-78
2021/01/15 10:19:15;;;;;;;19.23;17.23;;;;;;;0.90;85.57;101547.91;5092519;28;20253;-80
2021/01/15 10:21:41;;;;;;;18.50;16.00;;;;;;;1.04;85.07;101544.16;5085383;28;20291;-78
2021/01/15 10:24:08;;;;;;;19.23;17.20;;;;;;;1.05;84.44;101538.19;5090414;28;20220;-79
2021/01/15 10:26:36;;;;;;;16.83;15.03;;;;;;;0.98;83.33;101542.22;5086484;28;20214;-78
2021/01/15 10:29:05;;;;;;;17.20;15.03;;;;;;;0.99;83.13;101540.50;5085261;28;20226;-77
2021/01/15 10:31:33;;;;;;;17.33;15.50;;;;;;;1.06;82.98;101539.94;5097610;28;20200;-78
2021/01/15 10:33:59;;;;;;;17.63;15.03;;;;;;;1.17;83.18;101541.22;5091405;28;20200;-78
2021/01/15 10:36:26;;;;;;;17.37;15.30;;;;;;;1.22;82.47;101535.38;5094591;28;20257;-78
2021/01/15 10:38:53;;;;;;;16.07;14.43;;;;;;;1.29;82.02;101540.78;5093684;28;20257;-78
2021/01/15 10:41:29;;;;;;;19.83;14.67;;;;;;;1.29;82.34;101532.19;5089611;28;20204;-78
2021/01/15 10:43:55;;;;;;;18.43;16.53;;;;;;;1.12;82.61;101537.59;5091769;28;20207;-78
2021/01/15 10:46:28;;;;;;;19.73;15.67;;;;;;;1.12;81.97;101529.00;5090033;28;20347;-78
2021/01/15 10:48:54;;;;;;;17.40;15.60;;;;;;;0.97;82.75;101531.88;5091384;28;20661;-79
2021/01/15 10:51:19;;;;;;;19.67;15.67;;;;;;;0.98;82.92;101536.19;5089746;28;20216;-78
2021/01/15 10:53:45;;;;;;;16.50;14.80;;;;;;;1.14;82.80;101535.09;5096847;28;20204;-79
2021/01/15 10:56:12;;;;;;;17.70;15.57;;;;;;;0.88;82.52;101532.41;5099114;28;20681;-80
2021/01/15 10:58:38;;;;;;;16.50;14.90;;;;;;;0.93;83.22;101532.56;5107853;28;20260;-78
2021/01/15 11:01:04;;;;;;;16.40;14.30;;;;;;;0.82;83.15;101537.31;5100252;28;20199;-78
2021/01/15 11:03:29;;;;;;;17.93;15.17;;;;;;;0.62;83.30;101533.09;5103055;28;20223;-78
2021/01/15 11:05:55;;;;;;;16.03;14.33;;;;;;;0.79;83.51;101539.75;5099681;28;20314;-78
2021/01/15 11:08:21;;;;;;;15.87;14.17;;;;;;;0.56;83.82;101539.75;5099861;28;20201;-78
2021/01/15 11:10:47;;;;;;;17.37;15.57;;;;;;;0.63;84.16;101538.28;5100293;28;20256;-79
2021/01/15 11:13:14;;;;;;;17.87;15.93;;;;;;;0.73;83.73;101549.78;5101413;28;20196;-79
2021/01/15 11:15:39;;;;;;;15.90;14.23;;;;;;;0.78;83.08;101546.59;5103839;28;20223;-78
2021/01/15 11:18:05;;;;;;;15.63;14.13;;;;;;;0.91;83.16;101542.81;5101448;28;20280;-78
2021/01/15 11:20:31;;;;;;;17.23;15.53;;;;;;;0.79;82.78;101540.66;5094739;28;20257;-78
2021/01/15 11:22:57;;;;;;;17.27;15.57;;;;;;;0.65;82.44;101539.22;5095077;28;20287;-79
2021/01/15 11:25:23;;;;;;;16.73;15.03;;;;;;;0.50;82.64;101543.78;5094146;28;20228;-79
2021/01/15 11:27:49;;;;;;;15.67;14.20;;;;;;;0.45;82.12;101538.44;5094509;28;20204;-79